Time;durP1;ratioP1;P1;durP2;ratioP2;P2;SDS_P1;SDS_P2;PMS_P1;PMS_P2;Temp;Humidity;BMP_temperature;BMP_pressure;BME280_temperature;BME280_humidity;BME280_pressure;Samples;Min_cycle;Max_cycle;Signal;HPM_P1;HPM_P2
2023/07/20 00:00:01;;;;;;;3.97;2.40;;;15.60;99.90;;;;;;5040776;28;20881;-74
2023/07/20 00:02:26;;;;;;;2.92;2.38;;;15.50;99.90;;;;;;5040773;28;20109;-73
2023/07/20 00:04:52;;;;;;;3.28;2.65;;;15.50;99.90;;;;;;5040562;28;20028;-72
2023/07/20 00:07:17;;;;;;;3.95;2.47;;;15.60;99.90;;;;;;5040780;28;20108;-73
2023/07/20 00:09:43;;;;;;;7.65;3.13;;;15.50;99.90;;;;;;5040944;28;20057;-73
2023/07/20 00:12:09;;;;;;;4.57;3.10;;;15.50;99.90;;;;;;5041119;28;20030;-72
2023/07/20 00:14:35;;;;;;;4.00;2.75;;;15.40;99.90;;;;;;5039602;28;20094;-74
2023/07/20 00:17:02;;;;;;;4.93;3.17;;;15.40;99.90;;;;;;5040209;28;20093;-73
2023/07/20 00:19:28;;;;;;;3.65;3.10;;;15.20;99.90;;;;;;5039728;28;20426;-72
2023/07/20 00:21:54;;;;;;;5.32;3.45;;;15.20;99.90;;;;;;5039881;28;20040;-72
2023/07/20 00:24:20;;;;;;;4.07;3.15;;;15.10;99.90;;;;;;5041772;28;20109;-71
2023/07/20 00:26:46;;;;;;;4.30;3.17;;;15.00;99.90;;;;;;5041754;28;20045;-72
2023/07/20 00:29:12;;;;;;;3.97;2.88;;;15.00;99.90;;;;;;5040485;28;20026;-70
2023/07/20 00:31:38;;;;;;;5.30;2.92;;;14.90;99.90;;;;;;5041588;28;20030;-71
2023/07/20 00:34:04;;;;;;;4.50;3.40;;;14.80;99.90;;;;;;5041357;28;20036;-72
2023/07/20 00:36:30;;;;;;;3.78;3.03;;;14.80;99.90;;;;;;5041459;28;20021;-72
2023/07/20 00:38:56;;;;;;;8.23;3.50;;;14.80;99.90;;;;;;5041537;28;20494;-73
2023/07/20 00:41:22;;;;;;;4.97;3.50;;;14.80;99.90;;;;;;5041031;28;20052;-71
2023/07/20 00:43:47;;;;;;;5.57;3.67;;;14.80;99.90;;;;;;5040996;28;20418;-71
2023/07/20 00:46:13;;;;;;;5.68;3.78;;;14.70;99.90;;;;;;5041460;28;20044;-70
2023/07/20 00:48:41;;;;;;;6.20;3.85;;;14.80;99.90;;;;;;5041102;28;20032;-72
2023/07/20 00:51:07;;;;;;;6.03;4.10;;;14.80;99.90;;;;;;5040610;28;20033;-69
2023/07/20 00:53:32;;;;;;;5.68;4.05;;;14.80;99.90;;;;;;5041474;28;20734;-72
2023/07/20 00:55:58;;;;;;;6.95;4.15;;;14.70;99.90;;;;;;5039974;28;20021;-71
2023/07/20 00:58:24;;;;;;;5.65;4.22;;;14.80;99.90;;;;;;5039251;28;20045;-76
2023/07/20 01:00:50;;;;;;;4.63;4.05;;;14.80;99.90;;;;;;5041702;28;20045;-70
2023/07/20 01:03:16;;;;;;;5.03;3.95;;;14.70;99.90;;;;;;5044270;28;20018;-72
2023/07/20 01:05:50;;;;;;;5.05;3.80;;;14.60;99.90;;;;;;5044843;28;20022;-71
2023/07/20 01:08:22;;;;;;;4.65;3.42;;;14.70;99.90;;;;;;5044720;28;20093;-73
2023/07/20 01:10:56;;;;;;;4.75;3.95;;;14.70;99.90;;;;;;5044198;28;20026;-71
2023/07/20 01:13:23;;;;;;;5.90;3.92;;;14.70;99.90;;;;;;5043205;28;20029;-70
2023/07/20 01:15:58;;;;;;;7.43;3.75;;;14.70;99.90;;;;;;5044606;28;20501;-71
2023/07/20 01:18:23;;;;;;;4.57;3.38;;;14.70;99.90;;;;;;5044088;28;20021;-70
2023/07/20 01:20:49;;;;;;;4.57;3.20;;;14.70;99.90;;;;;;5044473;28;20041;-71
2023/07/20 01:23:40;;;;;;;4.03;3.10;;;14.70;99.90;;;;;;5044404;28;20117;-72
2023/07/20 01:26:09;;;;;;;4.10;3.50;;;14.70;99.90;;;;;;5044373;28;20025;-70
2023/07/20 01:28:55;;;;;;;5.38;3.63;;;14.70;99.90;;;;;;5044699;28;20022;-72
2023/07/20 01:31:27;;;;;;;4.30;3.40;;;14.70;99.90;;;;;;5042792;28;20025;-71
2023/07/20 01:33:59;;;;;;;4.28;3.28;;;14.70;99.90;;;;;;5042306;28;21047;-73
2023/07/20 01:36:27;;;;;;;3.92;3.17;;;14.70;99.90;;;;;;5044147;28;20052;-71
2023/07/20 01:38:54;;;;;;;4.90;3.00;;;14.70;99.90;;;;;;5043098;28;20042;-72
2023/07/20 01:41:20;;;;;;;5.00;3.25;;;14.70;99.90;;;;;;5044081;28;20037;-72
2023/07/20 01:43:46;;;;;;;5.05;3.08;;;14.70;99.90;;;;;;5043959;28;20044;-70
2023/07/20 01:46:12;;;;;;;4.82;3.20;;;14.70;99.90;;;;;;5043395;28;20059;-71
2023/07/20 01:48:37;;;;;;;3.78;3.28;;;14.70;99.90;;;;;;5044331;28;20077;-71
2023/07/20 01:51:03;;;;;;;4.78;3.20;;;14.70;99.90;;;;;;5043578;28;20502;-72
2023/07/20 01:53:29;;;;;;;5.80;3.13;;;14.60;99.90;;;;;;5042260;28;20069;-70
2023/07/20 01:55:54;;;;;;;8.57;3.97;;;14.60;99.90;;;;;;5043836;28;20024;-71
2023/07/20 01:58:20;;;;;;;4.82;3.55;;;14.60;99.90;;;;;;5043534;28;20021;-72
2023/07/20 02:00:46;;;;;;;5.38;3.70;;;14.60;99.90;;;;;;5042743;28;20029;-71
2023/07/20 02:03:12;;;;;;;4.20;3.67;;;14.60;99.90;;;;;;5043387;28;20033;-71
2023/07/20 02:05:38;;;;;;;4.55;3.60;;;14.70;99.90;;;;;;5041857;28;20026;-73
2023/07/20 02:08:04;;;;;;;7.40;4.13;;;14.60;99.90;;;;;;5043685;28;20144;-70
2023/07/20 02:10:29;;;;;;;6.38;3.90;;;14.60;99.90;;;;;;5043379;28;20033;-71
2023/07/20 02:12:55;;;;;;;5.28;3.80;;;14.60;99.90;;;;;;5043268;28;20034;-72
2023/07/20 02:15:21;;;;;;;6.22;3.97;;;14.70;99.90;;;;;;5043236;28;20067;-70
2023/07/20 02:17:47;;;;;;;4.90;3.63;;;14.60;99.90;;;;;;5043439;28;20033;-70
2023/07/20 02:20:13;;;;;;;5.45;3.50;;;14.60;99.90;;;;;;5043295;28;20033;-73
2023/07/20 02:22:39;;;;;;;5.47;4.22;;;14.70;99.90;;;;;;5043267;28;20018;-71
2023/07/20 02:25:07;;;;;;;6.65;4.38;;;14.60;99.90;;;;;;5043206;28;20502;-71
2023/07/20 02:27:36;;;;;;;6.00;4.13;;;14.60;99.90;;;;;;5042952;28;20024;-71
2023/07/20 02:30:03;;;;;;;7.40;3.53;;;14.60;99.90;;;;;;5042698;28;20358;-70
2023/07/20 02:32:29;;;;;;;7.90;4.30;;;14.70;99.90;;;;;;5043149;28;20124;-69
2023/07/20 02:34:55;;;;;;;5.15;3.97;;;14.60;99.90;;;;;;5042562;28;20049;-69
2023/07/20 02:37:21;;;;;;;5.53;3.95;;;14.60;99.90;;;;;;5042984;28;20025;-70
2023/07/20 02:39:46;;;;;;;6.70;3.90;;;14.60;99.90;;;;;;5042902;28;20056;-71
2023/07/20 02:42:13;;;;;;;7.03;4.18;;;14.60;99.90;;;;;;5042923;28;20045;-71
2023/07/20 02:44:38;;;;;;;4.78;3.85;;;14.60;99.90;;;;;;5041716;28;20051;-71
2023/07/20 02:47:04;;;;;;;6.25;4.10;;;14.60;99.90;;;;;;5042532;28;20030;-70
2023/07/20 02:49:30;;;;;;;4.82;3.85;;;14.60;99.90;;;;;;5042481;28;20024;-71
2023/07/20 02:51:55;;;;;;;4.95;4.13;;;14.60;99.90;;;;;;5042578;28;20075;-70
2023/07/20 02:54:21;;;;;;;6.85;4.35;;;14.60;99.90;;;;;;5042466;28;20025;-72
2023/07/20 02:56:47;;;;;;;6.53;4.50;;;14.60;99.90;;;;;;5042751;28;20077;-70
2023/07/20 02:59:12;;;;;;;7.88;4.85;;;14.60;99.90;;;;;;5042626;28;20115;-71
2023/07/20 03:01:38;;;;;;;5.60;4.70;;;14.60;99.90;;;;;;5041989;28;20041;-72
2023/07/20 03:04:04;;;;;;;8.20;4.97;;;14.50;99.90;;;;;;5042600;28;20017;-69
2023/07/20 03:06:29;;;;;;;8.77;5.18;;;14.60;99.90;;;;;;5042607;28;20077;-70
2023/07/20 03:08:55;;;;;;;8.88;5.55;;;14.50;99.90;;;;;;5041796;28;20037;-69
2023/07/20 03:11:21;;;;;;;7.55;5.63;;;14.50;99.90;;;;;;5042512;28;20623;-72
2023/07/20 03:13:47;;;;;;;8.63;4.97;;;14.50;99.90;;;;;;5042376;28;20025;-71
2023/07/20 03:16:17;;;;;;;6.57;5.00;;;14.50;99.90;;;;;;5042105;28;20378;-72
2023/07/20 03:18:43;;;;;;;11.98;5.68;;;14.50;99.90;;;;;;5040950;28;20030;-73
2023/07/20 03:21:11;;;;;;;7.22;5.43;;;14.50;99.90;;;;;;5042152;28;20055;-72
2023/07/20 03:23:37;;;;;;;6.63;5.30;;;14.50;99.90;;;;;;5041095;28;20014;-71
2023/07/20 03:26:02;;;;;;;8.13;5.35;;;14.50;99.90;;;;;;5040954;28;20033;-74
2023/07/20 03:28:28;;;;;;;7.70;5.45;;;14.50;99.90;;;;;;5042198;28;20035;-71
2023/07/20 03:30:55;;;;;;;8.35;5.80;;;14.50;99.90;;;;;;5041617;28;20026;-72
2023/07/20 03:33:22;;;;;;;8.73;5.70;;;14.50;99.90;;;;;;5042305;28;20056;-73
2023/07/20 03:35:47;;;;;;;8.38;5.75;;;14.50;99.90;;;;;;5042191;28;20026;-73
2023/07/20 03:38:13;;;;;;;7.65;5.80;;;14.50;99.90;;;;;;5041879;28;20060;-74
2023/07/20 03:40:48;;;;;;;7.07;5.15;;;14.50;99.90;;;;;;5042287;28;20119;-70
2023/07/20 03:43:14;;;;;;;8.95;5.78;;;14.50;99.90;;;;;;5040503;28;20052;-71
2023/07/20 03:45:39;;;;;;;7.45;5.97;;;14.50;99.90;;;;;;5041654;28;20025;-73
2023/07/20 03:48:05;;;;;;;7.07;5.40;;;14.50;99.90;;;;;;5041099;28;20108;-71
2023/07/20 03:50:32;;;;;;;9.32;6.50;;;14.50;99.90;;;;;;5040487;28;20060;-73
2023/07/20 03:52:58;;;;;;;8.00;5.95;;;14.50;99.90;;;;;;5041368;28;20032;-71
2023/07/20 03:55:23;;;;;;;7.32;5.70;;;14.50;99.90;;;;;;5041865;28;20025;-73
2023/07/20 03:57:50;;;;;;;9.15;5.80;;;14.50;99.90;;;;;;5041261;28;20475;-70
2023/07/20 04:00:17;;;;;;;8.85;5.50;;;14.50;99.90;;;;;;5041369;28;20109;-70
2023/07/20 04:02:42;;;;;;;10.57;5.93;;;14.50;99.90;;;;;;5041795;28;20017;-70
2023/07/20 04:05:08;;;;;;;8.15;5.57;;;14.40;99.90;;;;;;5041974;28;20079;-73
2023/07/20 04:07:34;;;;;;;8.10;5.75;;;14.50;99.90;;;;;;5041640;28;20029;-69
2023/07/20 04:09:59;;;;;;;8.43;6.10;;;14.40;99.90;;;;;;5041783;28;20029;-71
2023/07/20 04:12:25;;;;;;;9.00;5.38;;;14.40;99.90;;;;;;5041570;28;20081;-70
2023/07/20 04:14:51;;;;;;;7.38;5.00;;;14.40;99.90;;;;;;5041292;28;20030;-69
2023/07/20 04:17:18;;;;;;;8.68;5.47;;;14.50;99.90;;;;;;5041813;28;20017;-70
2023/07/20 04:19:44;;;;;;;8.70;5.20;;;14.50;99.90;;;;;;5040489;28;20036;-71
2023/07/20 04:22:10;;;;;;;6.78;5.45;;;14.50;99.90;;;;;;5041438;28;20083;-70
2023/07/20 04:24:35;;;;;;;9.30;5.13;;;14.50;99.90;;;;;;5040699;28;20095;-69
2023/07/20 04:27:01;;;;;;;8.68;5.68;;;14.50;99.90;;;;;;5041503;28;20033;-70
2023/07/20 04:29:26;;;;;;;7.63;5.13;;;14.50;99.90;;;;;;5041369;28;20029;-72
2023/07/20 04:31:52;;;;;;;6.80;5.22;;;14.50;99.90;;;;;;5041690;28;20022;-69
2023/07/20 04:34:18;;;;;;;10.23;5.53;;;14.50;99.90;;;;;;5041480;28;20021;-70
2023/07/20 04:36:43;;;;;;;7.90;5.03;;;14.50;99.90;;;;;;5043341;28;20508;-69
2023/07/20 04:39:10;;;;;;;8.45;5.25;;;14.50;99.90;;;;;;5044936;28;20045;-69
2023/07/20 04:41:35;;;;;;;7.60;5.05;;;14.50;99.90;;;;;;5043924;28;20269;-70
2023/07/20 04:44:01;;;;;;;7.65;5.18;;;14.40;99.90;;;;;;5044745;28;20140;-71
2023/07/20 04:46:27;;;;;;;20.52;7.13;;;14.40;99.90;;;;;;5045176;28;20122;-68
2023/07/20 04:48:52;;;;;;;11.05;5.53;;;14.40;99.90;;;;;;5045220;28;20033;-70
2023/07/20 04:51:20;;;;;;;8.73;5.15;;;14.40;99.90;;;;;;5044539;28;20069;-70
2023/07/20 04:53:47;;;;;;;10.25;5.80;;;14.40;99.90;;;;;;5045074;28;20037;-70
2023/07/20 04:56:12;;;;;;;11.15;5.20;;;14.40;99.90;;;;;;5043590;28;20025;-70
2023/07/20 04:58:38;;;;;;;10.45;5.22;;;14.40;99.90;;;;;;5044918;28;20036;-71
2023/07/20 05:01:04;;;;;;;6.72;5.18;;;14.40;99.90;;;;;;5045041;28;20032;-70
2023/07/20 05:03:29;;;;;;;10.70;4.80;;;14.40;99.90;;;;;;5044770;28;20470;-70
2023/07/20 05:05:55;;;;;;;7.18;4.40;;;14.50;99.90;;;;;;5044657;28;20040;-70
2023/07/20 05:08:22;;;;;;;10.07;4.60;;;14.40;99.90;;;;;;5042910;28;20028;-69
2023/07/20 05:10:47;;;;;;;7.22;4.93;;;14.50;99.90;;;;;;5044522;28;20552;-71
2023/07/20 05:13:13;;;;;;;7.45;4.75;;;14.40;99.90;;;;;;5044731;28;20022;-69
2023/07/20 05:15:39;;;;;;;9.40;5.07;;;14.50;99.90;;;;;;5044937;28;20021;-71
2023/07/20 05:18:05;;;;;;;7.40;4.90;;;14.50;99.90;;;;;;5044579;28;20048;-69
2023/07/20 05:20:33;;;;;;;6.05;4.93;;;14.50;99.90;;;;;;5044258;28;20033;-68
2023/07/20 05:22:58;;;;;;;9.45;5.03;;;14.50;99.90;;;;;;5043896;28;20028;-70
2023/07/20 05:25:24;;;;;;;6.95;4.60;;;14.50;99.90;;;;;;5044160;28;20025;-71
2023/07/20 05:27:50;;;;;;;8.90;4.43;;;14.60;99.90;;;;;;5044408;28;20490;-70
2023/07/20 05:30:16;;;;;;;6.32;4.40;;;14.60;99.90;;;;;;5043277;28;20022;-69
2023/07/20 05:32:42;;;;;;;7.57;4.80;;;14.60;99.90;;;;;;5044160;28;20086;-69
2023/07/20 05:35:08;;;;;;;8.73;4.57;;;14.60;99.90;;;;;;5044637;28;20028;-73
2023/07/20 05:37:34;;;;;;;9.48;4.55;;;14.70;99.90;;;;;;5044153;28;20026;-69
2023/07/20 05:39:59;;;;;;;8.90;4.35;;;14.70;99.90;;;;;;5043681;28;20753;-68
2023/07/20 05:42:25;;;;;;;6.97;3.97;;;14.70;99.90;;;;;;5042326;28;20021;-70
2023/07/20 05:44:52;;;;;;;7.03;4.00;;;14.80;99.90;;;;;;5039978;28;20140;-68
2023/07/20 05:47:18;;;;;;;8.68;4.03;;;14.80;99.90;;;;;;5040999;28;20052;-71
2023/07/20 05:49:43;;;;;;;9.40;3.05;;;14.90;99.90;;;;;;5041494;28;20422;-69
2023/07/20 05:52:09;;;;;;;4.22;3.00;;;14.90;99.90;;;;;;5042294;28;20105;-71
2023/07/20 05:54:36;;;;;;;4.55;2.90;;;15.00;99.90;;;;;;5042477;28;20101;-68
2023/07/20 05:57:01;;;;;;;5.53;2.90;;;15.10;99.90;;;;;;5043116;28;20029;-70
2023/07/20 05:59:31;;;;;;;7.05;3.10;;;15.20;99.90;;;;;;5042356;28;20390;-70
2023/07/20 06:01:57;;;;;;;5.18;2.45;;;15.20;99.90;;;;;;5042996;28;20018;-71
2023/07/20 06:04:22;;;;;;;7.13;2.47;;;15.20;99.90;;;;;;5040936;28;20032;-72
2023/07/20 06:06:49;;;;;;;5.07;2.20;;;15.20;99.90;;;;;;5043512;28;20037;-71
2023/07/20 06:09:15;;;;;;;5.88;2.47;;;15.20;99.90;;;;;;5042148;28;20053;-71
2023/07/20 06:11:41;;;;;;;4.93;2.35;;;15.20;99.90;;;;;;5042519;28;20033;-70
2023/07/20 06:14:07;;;;;;;4.53;2.60;;;15.20;99.90;;;;;;5042942;28;20084;-70
2023/07/20 06:16:32;;;;;;;8.32;2.78;;;15.20;99.90;;;;;;5042798;28;20461;-70
2023/07/20 06:19:00;;;;;;;6.85;2.75;;;15.20;99.90;;;;;;5041736;28;20053;-72
2023/07/20 06:21:26;;;;;;;5.40;2.28;;;15.20;99.90;;;;;;5043053;28;20026;-71
2023/07/20 06:23:52;;;;;;;7.20;2.50;;;15.10;99.90;;;;;;5043246;28;20056;-71
2023/07/20 06:26:17;;;;;;;6.15;2.50;;;15.20;99.90;;;;;;5041863;28;20029;-70
2023/07/20 06:28:43;;;;;;;4.55;2.60;;;15.20;99.90;;;;;;5040988;28;20071;-71
2023/07/20 06:31:09;;;;;;;6.55;2.42;;;15.20;99.90;;;;;;5042279;28;20113;-71
2023/07/20 06:33:34;;;;;;;8.13;2.38;;;15.10;99.90;;;;;;5037846;28;20033;-70
2023/07/20 06:36:00;;;;;;;4.45;2.53;;;15.10;99.90;;;;;;5041127;28;20037;-70
2023/07/20 06:38:26;;;;;;;6.07;2.35;;;15.10;99.90;;;;;;5042740;28;20391;-71
2023/07/20 06:40:52;;;;;;;6.72;2.42;;;15.10;99.90;;;;;;5042095;28;20502;-71
2023/07/20 06:43:18;;;;;;;4.18;2.28;;;15.10;99.90;;;;;;5041479;28;20032;-71
2023/07/20 06:45:43;;;;;;;4.82;1.83;;;15.10;99.90;;;;;;5041394;28;20092;-69
2023/07/20 06:48:09;;;;;;;3.95;1.60;;;15.10;99.90;;;;;;5041184;28;20475;-71
2023/07/20 06:50:35;;;;;;;3.35;2.10;;;15.20;99.90;;;;;;5040614;28;20053;-69
2023/07/20 06:53:03;;;;;;;4.10;1.30;;;15.20;99.90;;;;;;5042954;28;20033;-70
2023/07/20 06:55:29;;;;;;;2.53;1.80;;;15.30;99.90;;;;;;5042355;28;20047;-71
2023/07/20 06:57:55;;;;;;;4.55;1.70;;;15.40;99.90;;;;;;5040762;28;20101;-71
2023/07/20 07:00:20;;;;;;;3.97;1.40;;;15.40;99.90;;;;;;5044285;28;20021;-70
2023/07/20 07:02:46;;;;;;;3.40;1.63;;;15.50;99.90;;;;;;5039485;28;20029;-71
2023/07/20 07:05:13;;;;;;;3.03;1.50;;;15.60;99.90;;;;;;5042007;28;20037;-71
2023/07/20 07:07:39;;;;;;;4.70;1.33;;;15.60;99.90;;;;;;5042049;28;20032;-71
2023/07/20 07:10:05;;;;;;;7.78;1.50;;;15.70;99.90;;;;;;5042856;28;20033;-71
2023/07/20 07:12:31;;;;;;;3.72;1.40;;;15.70;99.90;;;;;;5040313;28;20029;-69
2023/07/20 07:14:57;;;;;;;7.05;1.83;;;15.80;99.90;;;;;;5041497;28;20394;-70
2023/07/20 07:17:22;;;;;;;7.40;1.50;;;15.80;99.90;;;;;;5041213;28;20029;-72
2023/07/20 07:19:48;;;;;;;5.70;1.70;;;15.90;99.90;;;;;;5041160;28;20038;-69
2023/07/20 07:22:13;;;;;;;4.40;1.52;;;16.00;99.90;;;;;;5041648;28;20044;-70
2023/07/20 07:24:41;;;;;;;5.78;1.63;;;16.00;99.90;;;;;;5041002;28;20040;-70
2023/07/20 07:27:08;;;;;;;3.92;1.58;;;16.10;99.90;;;;;;5040978;28;20026;-68
2023/07/20 07:29:33;;;;;;;4.80;1.45;;;16.10;99.90;;;;;;5039686;28;20029;-69
2023/07/20 07:31:59;;;;;;;3.40;1.30;;;16.20;99.90;;;;;;5039657;28;20028;-69
2023/07/20 07:34:28;;;;;;;2.40;1.30;;;16.30;99.90;;;;;;5041811;28;20033;-70
2023/07/20 07:36:53;;;;;;;7.63;1.88;;;16.30;99.90;;;;;;5041901;28;20060;-70
2023/07/20 07:39:19;;;;;;;7.47;1.70;;;16.40;99.90;;;;;;5041275;28;20037;-69
2023/07/20 07:41:45;;;;;;;6.07;1.60;;;16.40;99.90;;;;;;5043472;28;20049;-73
2023/07/20 07:44:11;;;;;;;6.05;1.88;;;16.50;99.90;;;;;;5040682;28;20037;-70
2023/07/20 07:46:37;;;;;;;6.43;2.08;;;16.60;99.90;;;;;;5039438;28;20030;-70
2023/07/20 07:49:03;;;;;;;6.95;2.08;;;16.70;99.90;;;;;;5041087;28;20108;-71
2023/07/20 07:51:28;;;;;;;5.13;2.50;;;16.90;99.90;;;;;;5039924;28;20045;-72
2023/07/20 07:53:54;;;;;;;7.70;2.72;;;16.90;99.90;;;;;;5039499;28;20080;-73
2023/07/20 07:56:22;;;;;;;5.18;2.17;;;16.90;99.90;;;;;;5040264;28;20037;-68
2023/07/20 07:58:51;;;;;;;6.65;2.40;;;16.90;99.90;;;;;;5040798;28;20101;-72
2023/07/20 08:01:18;;;;;;;5.60;2.33;;;17.00;99.90;;;;;;5041343;28;20034;-69
2023/07/20 08:03:46;;;;;;;4.10;2.08;;;17.10;99.90;;;;;;5041942;28;20029;-70
2023/07/20 08:06:13;;;;;;;5.47;2.17;;;17.20;99.90;;;;;;5041604;28;20085;-71
2023/07/20 08:08:39;;;;;;;5.93;1.98;;;17.20;99.90;;;;;;5039969;28;20039;-70
2023/07/20 08:11:04;;;;;;;9.48;2.10;;;17.30;99.90;;;;;;5045696;28;20093;-73
2023/07/20 08:13:31;;;;;;;5.65;2.20;;;17.30;99.90;;;;;;5044400;28;20049;-72
2023/07/20 08:15:56;;;;;;;11.15;2.45;;;17.30;99.90;;;;;;5043472;28;20029;-70
2023/07/20 08:18:22;;;;;;;6.15;2.45;;;17.30;99.90;;;;;;5044507;28;20036;-70
2023/07/20 08:20:49;;;;;;;5.25;2.05;;;17.40;99.90;;;;;;5042594;28;20037;-69
2023/07/20 08:23:15;;;;;;;7.95;2.53;;;17.40;99.90;;;;;;5044921;28;20125;-72
2023/07/20 08:25:43;;;;;;;9.90;2.60;;;17.50;99.90;;;;;;5044783;28;20029;-72
2023/07/20 08:28:11;;;;;;;8.70;2.45;;;17.60;99.90;;;;;;5044402;28;20022;-69
2023/07/20 08:30:45;;;;;;;6.25;2.28;;;17.70;99.90;;;;;;5045201;28;20029;-70
2023/07/20 08:33:13;;;;;;;4.93;2.15;;;17.80;99.90;;;;;;5043561;28;20053;-73
2023/07/20 08:35:38;;;;;;;7.82;2.28;;;17.80;99.90;;;;;;5041845;28;20029;-69
2023/07/20 08:38:04;;;;;;;8.15;2.17;;;17.90;99.90;;;;;;5044155;28;20068;-69
2023/07/20 08:40:32;;;;;;;8.55;2.25;;;17.90;99.90;;;;;;5042395;28;20084;-70
2023/07/20 08:43:00;;;;;;;5.70;2.20;;;17.90;99.90;;;;;;5042387;28;20018;-70
2023/07/20 08:45:28;;;;;;;7.80;2.25;;;18.00;99.90;;;;;;5044654;28;20018;-72
2023/07/20 08:47:56;;;;;;;4.95;1.92;;;18.00;99.90;;;;;;5044392;28;20085;-68
2023/07/20 08:50:22;;;;;;;5.90;2.00;;;18.10;99.90;;;;;;5044379;28;20068;-69
2023/07/20 08:52:50;;;;;;;7.22;2.50;;;18.20;99.90;;;;;;5044465;28;20025;-71
2023/07/20 08:55:15;;;;;;;6.28;2.30;;;18.20;99.90;;;;;;5043777;28;20053;-70
2023/07/20 08:57:44;;;;;;;8.18;2.70;;;18.20;99.90;;;;;;5044993;28;20021;-72
2023/07/20 09:00:12;;;;;;;7.22;2.33;;;18.30;99.90;;;;;;5044570;28;20041;-72
2023/07/20 09:02:42;;;;;;;4.90;2.28;;;18.40;99.90;;;;;;5044583;28;20073;-70
2023/07/20 09:05:09;;;;;;;9.93;2.92;;;18.30;99.90;;;;;;5044667;28;20026;-70
2023/07/20 09:07:36;;;;;;;10.50;2.45;;;18.30;99.90;;;;;;5044532;28;20018;-71
2023/07/20 09:10:06;;;;;;;9.35;3.00;;;18.40;99.90;;;;;;5044402;28;20029;-69
2023/07/20 09:12:43;;;;;;;7.88;2.60;;;18.40;99.90;;;;;;5044723;28;20033;-72
2023/07/20 09:15:10;;;;;;;7.03;2.42;;;18.50;99.90;;;;;;5044180;28;20017;-69
2023/07/20 09:17:37;;;;;;;5.15;2.20;;;18.50;99.90;;;;;;5044592;28;20032;-69
2023/07/20 09:20:07;;;;;;;6.78;2.38;;;18.70;99.90;;;;;;5044620;28;20045;-69
2023/07/20 09:22:34;;;;;;;6.55;1.85;;;18.80;99.90;;;;;;5043412;28;20061;-70
2023/07/20 09:25:00;;;;;;;9.70;2.53;;;18.80;99.90;;;;;;5044191;28;20056;-69
2023/07/20 09:27:39;;;;;;;7.25;2.40;;;18.70;99.90;;;;;;5044721;28;20025;-69
2023/07/20 09:30:09;;;;;;;7.05;2.38;;;18.60;99.90;;;;;;5043923;28;20037;-70
2023/07/20 09:32:50;;;;;;;9.15;2.17;;;18.50;99.90;;;;;;5044031;28;20114;-70
2023/07/20 09:35:22;;;;;;;7.25;3.05;;;18.30;99.90;;;;;;5043744;28;20049;-70
2023/07/20 09:38:02;;;;;;;7.10;2.47;;;18.10;99.90;;;;;;5043699;28;20041;-71
2023/07/20 09:40:27;;;;;;;6.72;2.63;;;17.90;99.90;;;;;;5043756;28;20056;-68
2023/07/20 09:43:00;;;;;;;7.32;2.10;;;17.90;99.90;;;;;;5043905;28;20018;-70
2023/07/20 09:45:44;;;;;;;6.72;2.67;;;18.00;99.90;;;;;;5043683;28;20112;-70
2023/07/20 09:48:11;;;;;;;9.10;2.72;;;18.10;99.90;;;;;;5043841;28;20025;-71
2023/07/20 09:50:42;;;;;;;7.30;2.38;;;18.10;99.90;;;;;;5043831;28;20041;-70
2023/07/20 09:53:11;;;;;;;10.05;2.60;;;18.10;99.90;;;;;;5043720;28;20025;-68
2023/07/20 09:55:38;;;;;;;4.53;2.10;;;18.00;99.90;;;;;;5044003;28;20100;-68
2023/07/20 09:58:06;;;;;;;6.28;2.70;;;17.90;99.90;;;;;;5043537;28;20032;-68
2023/07/20 10:00:34;;;;;;;6.22;2.30;;;18.00;99.90;;;;;;5043427;28;20044;-68
2023/07/20 10:03:03;;;;;;;5.85;2.10;;;18.00;99.90;;;;;;5043733;28;20025;-71
2023/07/20 10:05:36;;;;;;;6.35;2.65;;;18.20;99.90;;;;;;5043181;28;20021;-69
2023/07/20 10:08:05;;;;;;;11.35;2.15;;;18.20;99.90;;;;;;5043744;28;20589;-68
2023/07/20 10:10:32;;;;;;;3.55;1.75;;;18.40;99.90;;;;;;5043439;28;20036;-68
2023/07/20 10:12:58;;;;;;;4.07;1.73;;;18.60;99.90;;;;;;5043233;28;20017;-67
2023/07/20 10:15:32;;;;;;;3.55;1.60;;;18.70;99.90;;;;;;5043375;28;20090;-68
2023/07/20 10:18:23;;;;;;;4.82;1.80;;;18.90;99.90;;;;;;5043315;28;20029;-70
2023/07/20 10:20:51;;;;;;;4.13;1.60;;;19.00;99.90;;;;;;5039179;28;20053;-72
2023/07/20 10:23:17;;;;;;;4.50;1.35;;;19.20;99.90;;;;;;5039296;28;20049;-69
2023/07/20 10:25:43;;;;;;;4.63;1.45;;;19.30;99.90;;;;;;5040534;28;20033;-69
2023/07/20 10:28:11;;;;;;;2.72;1.55;;;19.40;99.90;;;;;;5039060;28;20112;-69
2023/07/20 10:30:37;;;;;;;5.70;1.52;;;19.60;99.90;;;;;;5043070;28;20030;-67
2023/07/20 10:33:04;;;;;;;4.53;1.45;;;19.70;99.90;;;;;;5041223;28;20045;-70
2023/07/20 10:35:30;;;;;;;5.60;1.92;;;19.60;99.90;;;;;;5039082;28;20044;-71
2023/07/20 10:38:04;;;;;;;5.15;1.90;;;19.60;99.90;;;;;;5037529;28;20033;-70
2023/07/20 10:40:31;;;;;;;5.45;1.50;;;19.70;99.90;;;;;;5040129;28;20064;-71
2023/07/20 10:43:08;;;;;;;6.35;1.42;;;19.70;99.90;;;;;;5039630;28;20060;-72
2023/07/20 10:45:33;;;;;;;4.30;1.40;;;19.50;99.90;;;;;;5037018;28;20037;-71
2023/07/20 10:48:04;;;;;;;3.53;1.10;;;19.50;99.90;;;;;;5042177;28;20028;-71
2023/07/20 10:50:30;;;;;;;3.47;1.35;;;19.70;99.90;;;;;;5042479;28;20052;-69
2023/07/20 10:53:25;;;;;;;3.55;1.50;;;19.90;99.90;;;;;;5034199;28;20026;-70
2023/07/20 10:56:07;;;;;;;4.75;1.20;;;20.20;99.90;;;;;;5027662;28;20056;-70
2023/07/20 10:58:34;;;;;;;3.97;1.40;;;20.40;99.90;;;;;;5040719;28;20068;-73
2023/07/20 11:01:05;;;;;;;2.45;1.10;;;20.60;99.90;;;;;;5036590;28;20045;-71
2023/07/20 11:03:33;;;;;;;3.65;1.08;;;20.70;99.90;;;;;;5041566;28;20025;-69
2023/07/20 11:05:59;;;;;;;3.50;1.00;;;20.80;99.90;;;;;;5042779;28;20030;-71
2023/07/20 11:08:43;;;;;;;2.95;1.10;;;20.70;99.90;;;;;;5042743;28;20029;-68
2023/07/20 11:11:26;;;;;;;4.93;1.05;;;20.40;99.90;;;;;;5041843;28;20053;-70
2023/07/20 11:14:02;;;;;;;6.45;1.45;;;20.10;99.90;;;;;;5040599;28;20040;-71
2023/07/20 11:16:35;;;;;;;3.15;1.00;;;19.80;99.90;;;;;;5041758;28;20029;-68
2023/07/20 11:19:02;;;;;;;2.65;0.90;;;19.60;99.90;;;;;;5036998;28;20040;-70
2023/07/20 11:21:29;;;;;;;4.28;1.08;;;19.40;99.90;;;;;;5037988;28;20127;-71
2023/07/20 11:23:55;;;;;;;6.95;1.20;;;19.40;99.90;;;;;;5039944;28;20057;-70
2023/07/20 11:26:21;;;;;;;5.45;1.35;;;19.70;99.90;;;;;;5039387;28;20679;-70
2023/07/20 11:28:51;;;;;;;7.70;1.50;;;19.90;99.90;;;;;;5038000;28;20051;-71
2023/07/20 11:31:18;;;;;;;4.45;1.30;;;19.90;99.90;;;;;;5038975;28;20084;-70
2023/07/20 11:33:44;;;;;;;5.50;1.50;;;19.90;99.90;;;;;;5042979;28;20093;-71
2023/07/20 11:36:09;;;;;;;4.55;1.08;;;19.90;99.90;;;;;;5043048;28;20030;-71
2023/07/20 11:38:35;;;;;;;5.32;1.02;;;19.90;99.90;;;;;;5041977;28;20030;-71
2023/07/20 11:41:03;;;;;;;4.43;1.15;;;19.70;99.90;;;;;;5040388;28;20494;-71
2023/07/20 11:43:30;;;;;;;8.10;1.30;;;19.80;99.90;;;;;;5040607;28;20036;-70
2023/07/20 11:45:56;;;;;;;3.20;1.20;;;20.10;99.90;;;;;;5040995;28;20095;-70
2023/07/20 11:48:22;;;;;;;4.78;0.98;;;20.40;99.90;;;;;;5039950;28;20025;-69
2023/07/20 11:50:48;;;;;;;5.47;1.23;;;20.60;99.90;;;;;;5040322;28;20105;-72
2023/07/20 11:53:15;;;;;;;3.58;1.00;;;20.80;99.90;;;;;;5039851;28;20018;-71
2023/07/20 11:55:45;;;;;;;4.40;0.98;;;21.00;99.90;;;;;;5041250;28;20368;-71
2023/07/20 11:58:12;;;;;;;3.67;1.10;;;21.20;99.90;;;;;;5041663;28;20083;-70
2023/07/20 12:00:40;;;;;;;6.85;1.30;;;21.30;99.90;;;;;;5041382;28;20029;-70
2023/07/20 12:03:07;;;;;;;2.70;1.00;;;21.40;99.90;;;;;;5041050;28;20034;-73
2023/07/20 12:05:33;;;;;;;4.53;1.02;;;21.30;99.90;;;;;;5040168;28;20052;-69
2023/07/20 12:07:58;;;;;;;7.43;1.70;;;21.00;99.90;;;;;;5041598;28;20414;-69
2023/07/20 12:10:26;;;;;;;3.05;1.10;;;20.70;99.90;;;;;;5041055;28;20030;-70
2023/07/20 12:12:52;;;;;;;4.30;0.80;;;20.50;99.90;;;;;;5039446;28;20029;-69
2023/07/20 12:15:21;;;;;;;4.47;1.00;;;20.20;99.90;;;;;;5040394;28;20037;-70
2023/07/20 12:17:50;;;;;;;3.88;1.00;;;20.00;99.90;;;;;;5040596;28;20021;-70
2023/07/20 12:20:34;;;;;;;1.75;1.00;;;19.80;99.90;;;;;;5041025;28;20034;-69
2023/07/20 12:23:02;;;;;;;2.70;1.00;;;19.70;99.90;;;;;;5040866;28;20037;-70
2023/07/20 12:25:36;;;;;;;3.55;1.00;;;19.60;99.90;;;;;;5038721;28;20025;-72
2023/07/20 12:28:04;;;;;;;3.20;0.65;;;19.50;99.90;;;;;;5040928;28;20565;-71
2023/07/20 12:30:30;;;;;;;2.10;0.88;;;19.40;99.90;;;;;;5040817;28;21468;-70
2023/07/20 12:32:56;;;;;;;3.13;1.10;;;19.40;99.90;;;;;;5039204;28;20477;-70
2023/07/20 12:35:21;;;;;;;3.33;0.90;;;19.40;99.90;;;;;;5039617;28;20032;-69
2023/07/20 12:37:48;;;;;;;2.80;0.93;;;19.50;99.90;;;;;;5038123;28;20076;-70
2023/07/20 12:40:14;;;;;;;5.43;1.17;;;19.50;99.90;;;;;;5039326;28;20037;-71
2023/07/20 12:42:40;;;;;;;4.65;1.05;;;19.80;99.90;;;;;;5039855;28;20033;-70
2023/07/20 12:45:07;;;;;;;3.42;0.90;;;20.20;99.90;;;;;;5040502;28;20067;-69